sensor_id;sensor_type;location;lat;lon;timestamp;P1;durP1;ratioP1;P2;durP2;ratioP2
46765;SDS011;32527;51.986;5.842;2022-08-16T00:01:07;11.80;;;8.27;;
46765;SDS011;32527;51.986;5.842;2022-08-16T00:03:32;10.60;;;7.55;;
46765;SDS011;32527;51.986;5.842;2022-08-16T00:05:58;13.77;;;8.95;;
46765;SDS011;32527;51.986;5.842;2022-08-16T00:08:24;13.50;;;8.05;;
46765;SDS011;32527;51.986;5.842;2022-08-16T00:10:50;10.70;;;7.63;;
46765;SDS011;32527;51.986;5.842;2022-08-16T00:13:16;9.50;;;7.30;;
46765;SDS011;32527;51.986;5.842;2022-08-16T00:15:43;13.50;;;7.75;;
46765;SDS011;32527;51.986;5.842;2022-08-16T00:18:11;10.80;;;7.40;;
46765;SDS011;32527;51.986;5.842;2022-08-16T00:20:38;11.10;;;8.20;;
46765;SDS011;32527;51.986;5.842;2022-08-16T00:23:06;13.73;;;8.30;;
46765;SDS011;32527;51.986;5.842;2022-08-16T00:25:32;16.17;;;10.18;;
46765;SDS011;32527;51.986;5.842;2022-08-16T00:27:58;11.57;;;9.55;;
46765;SDS011;32527;51.986;5.842;2022-08-16T00:30:24;11.95;;;8.50;;
46765;SDS011;32527;51.986;5.842;2022-08-16T00:32:51;12.88;;;8.18;;
46765;SDS011;32527;51.986;5.842;2022-08-16T00:35:21;17.65;;;8.27;;
46765;SDS011;32527;51.986;5.842;2022-08-16T00:37:52;13.52;;;8.77;;
46765;SDS011;32527;51.986;5.842;2022-08-16T00:40:28;12.20;;;8.43;;
46765;SDS011;32527;51.986;5.842;2022-08-16T00:42:57;11.63;;;8.60;;
46765;SDS011;32527;51.986;5.842;2022-08-16T00:45:40;11.98;;;8.43;;
46765;SDS011;32527;51.986;5.842;2022-08-16T00:48:13;14.30;;;9.65;;
46765;SDS011;32527;51.986;5.842;2022-08-16T00:50:40;14.77;;;9.70;;
46765;SDS011;32527;51.986;5.842;2022-08-16T00:53:07;16.58;;;9.93;;
46765;SDS011;32527;51.986;5.842;2022-08-16T00:55:36;16.95;;;9.73;;
46765;SDS011;32527;51.986;5.842;2022-08-16T00:58:12;13.02;;;8.65;;
46765;SDS011;32527;51.986;5.842;2022-08-16T01:00:41;13.88;;;9.45;;
46765;SDS011;32527;51.986;5.842;2022-08-16T01:03:08;12.13;;;9.32;;
46765;SDS011;32527;51.986;5.842;2022-08-16T01:05:36;12.27;;;9.10;;
46765;SDS011;32527;51.986;5.842;2022-08-16T01:08:03;15.18;;;9.85;;
46765;SDS011;32527;51.986;5.842;2022-08-16T01:10:31;17.67;;;10.32;;
46765;SDS011;32527;51.986;5.842;2022-08-16T01:12:58;15.70;;;8.88;;
46765;SDS011;32527;51.986;5.842;2022-08-16T01:15:26;12.55;;;10.10;;
46765;SDS011;32527;51.986;5.842;2022-08-16T01:17:53;13.05;;;8.70;;
46765;SDS011;32527;51.986;5.842;2022-08-16T01:20:19;14.98;;;9.60;;
46765;SDS011;32527;51.986;5.842;2022-08-16T01:23:01;14.65;;;9.55;;
46765;SDS011;32527;51.986;5.842;2022-08-16T01:25:36;13.02;;;9.60;;
46765;SDS011;32527;51.986;5.842;2022-08-16T01:28:07;14.00;;;9.68;;
46765;SDS011;32527;51.986;5.842;2022-08-16T01:30:37;12.93;;;9.27;;
46765;SDS011;32527;51.986;5.842;2022-08-16T01:33:06;14.45;;;9.43;;
46765;SDS011;32527;51.986;5.842;2022-08-16T01:35:44;16.48;;;10.50;;
46765;SDS011;32527;51.986;5.842;2022-08-16T01:40:58;11.77;;;9.82;;
46765;SDS011;32527;51.986;5.842;2022-08-16T01:43:25;16.45;;;9.18;;
46765;SDS011;32527;51.986;5.842;2022-08-16T01:45:56;16.10;;;10.93;;
46765;SDS011;32527;51.986;5.842;2022-08-16T01:48:28;16.35;;;10.05;;
46765;SDS011;32527;51.986;5.842;2022-08-16T01:50:55;16.02;;;10.68;;
46765;SDS011;32527;51.986;5.842;2022-08-16T01:53:22;15.05;;;11.07;;
46765;SDS011;32527;51.986;5.842;2022-08-16T01:56:00;12.90;;;10.13;;
46765;SDS011;32527;51.986;5.842;2022-08-16T01:58:29;15.73;;;11.45;;
46765;SDS011;32527;51.986;5.842;2022-08-16T02:00:55;14.13;;;10.15;;
46765;SDS011;32527;51.986;5.842;2022-08-16T02:03:21;16.13;;;11.50;;
46765;SDS011;32527;51.986;5.842;2022-08-16T02:05:47;15.52;;;11.95;;
46765;SDS011;32527;51.986;5.842;2022-08-16T02:08:13;17.08;;;11.82;;
46765;SDS011;32527;51.986;5.842;2022-08-16T02:10:39;16.23;;;12.15;;
46765;SDS011;32527;51.986;5.842;2022-08-16T02:13:05;15.95;;;12.07;;
46765;SDS011;32527;51.986;5.842;2022-08-16T02:15:33;14.45;;;10.88;;
46765;SDS011;32527;51.986;5.842;2022-08-16T02:18:01;17.83;;;11.52;;
46765;SDS011;32527;51.986;5.842;2022-08-16T02:20:28;18.15;;;12.45;;
46765;SDS011;32527;51.986;5.842;2022-08-16T02:22:57;16.08;;;12.32;;
46765;SDS011;32527;51.986;5.842;2022-08-16T02:25:24;18.02;;;13.05;;
46765;SDS011;32527;51.986;5.842;2022-08-16T02:27:51;17.83;;;12.48;;
46765;SDS011;32527;51.986;5.842;2022-08-16T02:30:20;17.88;;;13.35;;
46765;SDS011;32527;51.986;5.842;2022-08-16T02:32:48;23.27;;;14.73;;
46765;SDS011;32527;51.986;5.842;2022-08-16T02:35:14;17.95;;;13.35;;
46765;SDS011;32527;51.986;5.842;2022-08-16T02:37:41;17.48;;;12.15;;
46765;SDS011;32527;51.986;5.842;2022-08-16T02:40:07;21.23;;;15.57;;
46765;SDS011;32527;51.986;5.842;2022-08-16T02:42:34;15.98;;;13.10;;
46765;SDS011;32527;51.986;5.842;2022-08-16T02:45:00;17.58;;;14.25;;
46765;SDS011;32527;51.986;5.842;2022-08-16T02:47:27;17.23;;;13.80;;
46765;SDS011;32527;51.986;5.842;2022-08-16T02:49:52;16.83;;;14.48;;
46765;SDS011;32527;51.986;5.842;2022-08-16T02:52:18;19.20;;;14.50;;
46765;SDS011;32527;51.986;5.842;2022-08-16T02:54:44;19.25;;;13.95;;
46765;SDS011;32527;51.986;5.842;2022-08-16T02:57:10;18.45;;;14.68;;
46765;SDS011;32527;51.986;5.842;2022-08-16T02:59:36;23.95;;;15.77;;
46765;SDS011;32527;51.986;5.842;2022-08-16T03:02:03;21.52;;;15.25;;
46765;SDS011;32527;51.986;5.842;2022-08-16T03:04:29;19.73;;;15.48;;
46765;SDS011;32527;51.986;5.842;2022-08-16T03:06:55;20.80;;;15.38;;
46765;SDS011;32527;51.986;5.842;2022-08-16T03:09:33;22.17;;;16.13;;
46765;SDS011;32527;51.986;5.842;2022-08-16T03:11:59;23.08;;;16.58;;
46765;SDS011;32527;51.986;5.842;2022-08-16T03:14:25;20.55;;;16.35;;
46765;SDS011;32527;51.986;5.842;2022-08-16T03:16:55;19.75;;;15.30;;
46765;SDS011;32527;51.986;5.842;2022-08-16T03:19:21;23.73;;;17.92;;
46765;SDS011;32527;51.986;5.842;2022-08-16T03:21:47;24.88;;;16.48;;
46765;SDS011;32527;51.986;5.842;2022-08-16T03:24:13;26.60;;;17.17;;
46765;SDS011;32527;51.986;5.842;2022-08-16T03:26:39;24.80;;;17.48;;
46765;SDS011;32527;51.986;5.842;2022-08-16T03:29:05;24.67;;;18.58;;
46765;SDS011;32527;51.986;5.842;2022-08-16T03:31:31;28.83;;;19.55;;
46765;SDS011;32527;51.986;5.842;2022-08-16T03:33:57;24.70;;;19.67;;
46765;SDS011;32527;51.986;5.842;2022-08-16T03:36:23;29.13;;;20.38;;
46765;SDS011;32527;51.986;5.842;2022-08-16T03:38:54;30.48;;;20.95;;
46765;SDS011;32527;51.986;5.842;2022-08-16T03:41:19;31.52;;;22.05;;
46765;SDS011;32527;51.986;5.842;2022-08-16T03:43:46;28.50;;;21.55;;
46765;SDS011;32527;51.986;5.842;2022-08-16T03:46:14;28.10;;;19.95;;
46765;SDS011;32527;51.986;5.842;2022-08-16T03:48:40;28.48;;;20.30;;
46765;SDS011;32527;51.986;5.842;2022-08-16T03:51:12;30.48;;;22.10;;
46765;SDS011;32527;51.986;5.842;2022-08-16T03:53:44;28.77;;;22.58;;
46765;SDS011;32527;51.986;5.842;2022-08-16T03:56:09;28.58;;;21.25;;
46765;SDS011;32527;51.986;5.842;2022-08-16T04:04:00;29.55;;;21.85;;
46765;SDS011;32527;51.986;5.842;2022-08-16T04:06:27;29.75;;;21.05;;
46765;SDS011;32527;51.986;5.842;2022-08-16T04:08:54;40.90;;;23.67;;
46765;SDS011;32527;51.986;5.842;2022-08-16T04:11:20;33.60;;;23.10;;
46765;SDS011;32527;51.986;5.842;2022-08-16T04:13:46;35.80;;;24.33;;
46765;SDS011;32527;51.986;5.842;2022-08-16T04:16:13;32.13;;;22.15;;
46765;SDS011;32527;51.986;5.842;2022-08-16T04:18:42;31.25;;;23.63;;
46765;SDS011;32527;51.986;5.842;2022-08-16T04:21:09;32.88;;;22.80;;
46765;SDS011;32527;51.986;5.842;2022-08-16T04:23:36;30.95;;;22.50;;
46765;SDS011;32527;51.986;5.842;2022-08-16T04:26:04;31.27;;;22.17;;
46765;SDS011;32527;51.986;5.842;2022-08-16T04:28:33;30.02;;;23.27;;
46765;SDS011;32527;51.986;5.842;2022-08-16T04:30:59;31.67;;;24.92;;
46765;SDS011;32527;51.986;5.842;2022-08-16T04:33:26;29.92;;;23.60;;
46765;SDS011;32527;51.986;5.842;2022-08-16T04:35:52;32.63;;;24.90;;
46765;SDS011;32527;51.986;5.842;2022-08-16T04:38:21;31.77;;;23.70;;
46765;SDS011;32527;51.986;5.842;2022-08-16T04:40:50;28.98;;;22.48;;
46765;SDS011;32527;51.986;5.842;2022-08-16T04:43:17;27.80;;;22.65;;
46765;SDS011;32527;51.986;5.842;2022-08-16T04:45:43;32.25;;;23.83;;
46765;SDS011;32527;51.986;5.842;2022-08-16T04:48:13;27.73;;;21.92;;
46765;SDS011;32527;51.986;5.842;2022-08-16T04:50:57;27.55;;;21.95;;
46765;SDS011;32527;51.986;5.842;2022-08-16T04:53:50;32.00;;;22.40;;
46765;SDS011;32527;51.986;5.842;2022-08-16T04:56:17;31.20;;;23.10;;
46765;SDS011;32527;51.986;5.842;2022-08-16T04:58:44;37.90;;;26.15;;
46765;SDS011;32527;51.986;5.842;2022-08-16T05:01:10;31.17;;;24.08;;
46765;SDS011;32527;51.986;5.842;2022-08-16T05:03:36;34.65;;;23.13;;
46765;SDS011;32527;51.986;5.842;2022-08-16T05:06:02;31.42;;;24.25;;
46765;SDS011;32527;51.986;5.842;2022-08-16T05:08:28;33.85;;;24.70;;
46765;SDS011;32527;51.986;5.842;2022-08-16T05:11:03;30.63;;;23.08;;
46765;SDS011;32527;51.986;5.842;2022-08-16T05:13:31;31.88;;;23.50;;
46765;SDS011;32527;51.986;5.842;2022-08-16T05:16:00;34.75;;;22.70;;
46765;SDS011;32527;51.986;5.842;2022-08-16T05:18:26;31.77;;;21.88;;
46765;SDS011;32527;51.986;5.842;2022-08-16T05:20:54;30.60;;;23.85;;
46765;SDS011;32527;51.986;5.842;2022-08-16T05:23:20;33.90;;;25.52;;
46765;SDS011;32527;51.986;5.842;2022-08-16T05:25:46;31.77;;;24.67;;
46765;SDS011;32527;51.986;5.842;2022-08-16T05:28:12;30.05;;;22.70;;
46765;SDS011;32527;51.986;5.842;2022-08-16T05:30:42;38.92;;;25.02;;
46765;SDS011;32527;51.986;5.842;2022-08-16T05:35:42;31.92;;;22.63;;
46765;SDS011;32527;51.986;5.842;2022-08-16T05:38:16;31.58;;;24.73;;
46765;SDS011;32527;51.986;5.842;2022-08-16T05:40:43;29.00;;;23.85;;
46765;SDS011;32527;51.986;5.842;2022-08-16T05:43:11;29.15;;;24.25;;
46765;SDS011;32527;51.986;5.842;2022-08-16T05:45:37;34.42;;;23.20;;
46765;SDS011;32527;51.986;5.842;2022-08-16T05:48:03;33.38;;;23.17;;
46765;SDS011;32527;51.986;5.842;2022-08-16T05:50:49;31.17;;;23.40;;
46765;SDS011;32527;51.986;5.842;2022-08-16T05:53:15;32.30;;;22.73;;
46765;SDS011;32527;51.986;5.842;2022-08-16T05:55:57;30.17;;;23.08;;
46765;SDS011;32527;51.986;5.842;2022-08-16T05:58:24;28.80;;;23.40;;
46765;SDS011;32527;51.986;5.842;2022-08-16T06:00:50;31.05;;;22.95;;
46765;SDS011;32527;51.986;5.842;2022-08-16T06:03:16;29.38;;;22.42;;
46765;SDS011;32527;51.986;5.842;2022-08-16T06:06:03;31.58;;;24.48;;
46765;SDS011;32527;51.986;5.842;2022-08-16T06:08:32;31.92;;;23.48;;
46765;SDS011;32527;51.986;5.842;2022-08-16T06:10:58;29.48;;;22.65;;
46765;SDS011;32527;51.986;5.842;2022-08-16T06:13:24;28.38;;;22.25;;
46765;SDS011;32527;51.986;5.842;2022-08-16T06:15:50;30.60;;;22.02;;
46765;SDS011;32527;51.986;5.842;2022-08-16T06:18:17;27.38;;;21.25;;
46765;SDS011;32527;51.986;5.842;2022-08-16T06:20:43;30.25;;;22.48;;
46765;SDS011;32527;51.986;5.842;2022-08-16T06:23:15;28.33;;;22.30;;
46765;SDS011;32527;51.986;5.842;2022-08-16T06:25:52;29.83;;;23.00;;
46765;SDS011;32527;51.986;5.842;2022-08-16T06:28:18;29.70;;;22.90;;
46765;SDS011;32527;51.986;5.842;2022-08-16T06:30:44;29.17;;;22.15;;
46765;SDS011;32527;51.986;5.842;2022-08-16T06:33:14;30.20;;;22.38;;
46765;SDS011;32527;51.986;5.842;2022-08-16T06:35:42;23.55;;;20.13;;
46765;SDS011;32527;51.986;5.842;2022-08-16T06:38:08;25.35;;;21.10;;
46765;SDS011;32527;51.986;5.842;2022-08-16T06:40:34;28.52;;;20.10;;
46765;SDS011;32527;51.986;5.842;2022-08-16T06:43:00;26.45;;;20.73;;
46765;SDS011;32527;51.986;5.842;2022-08-16T06:45:33;26.63;;;20.13;;
46765;SDS011;32527;51.986;5.842;2022-08-16T06:48:09;25.58;;;17.88;;
46765;SDS011;32527;51.986;5.842;2022-08-16T06:50:35;20.20;;;17.05;;
46765;SDS011;32527;51.986;5.842;2022-08-16T06:53:05;21.10;;;16.70;;
46765;SDS011;32527;51.986;5.842;2022-08-16T06:55:32;25.35;;;19.02;;
46765;SDS011;32527;51.986;5.842;2022-08-16T06:58:00;24.85;;;18.77;;
46765;SDS011;32527;51.986;5.842;2022-08-16T07:00:26;25.65;;;18.60;;
46765;SDS011;32527;51.986;5.842;2022-08-16T07:03:00;22.98;;;17.73;;
46765;SDS011;32527;51.986;5.842;2022-08-16T07:05:28;20.42;;;17.98;;
46765;SDS011;32527;51.986;5.842;2022-08-16T07:08:07;22.40;;;18.23;;
46765;SDS011;32527;51.986;5.842;2022-08-16T07:10:36;17.77;;;15.82;;
46765;SDS011;32527;51.986;5.842;2022-08-16T07:13:02;22.52;;;18.60;;
46765;SDS011;32527;51.986;5.842;2022-08-16T07:15:31;21.15;;;17.77;;
46765;SDS011;32527;51.986;5.842;2022-08-16T07:17:58;23.60;;;17.83;;
46765;SDS011;32527;51.986;5.842;2022-08-16T07:20:25;21.23;;;19.00;;
46765;SDS011;32527;51.986;5.842;2022-08-16T07:22:53;19.02;;;15.88;;
46765;SDS011;32527;51.986;5.842;2022-08-16T07:25:32;19.63;;;15.40;;
46765;SDS011;32527;51.986;5.842;2022-08-16T07:27:59;19.85;;;16.27;;
46765;SDS011;32527;51.986;5.842;2022-08-16T07:30:28;24.27;;;16.00;;
46765;SDS011;32527;51.986;5.842;2022-08-16T07:32:57;20.95;;;15.38;;
46765;SDS011;32527;51.986;5.842;2022-08-16T07:35:24;18.38;;;15.25;;
46765;SDS011;32527;51.986;5.842;2022-08-16T07:37:50;19.17;;;15.82;;
46765;SDS011;32527;51.986;5.842;2022-08-16T07:40:30;21.27;;;16.00;;
46765;SDS011;32527;51.986;5.842;2022-08-16T07:42:59;17.50;;;14.95;;
46765;SDS011;32527;51.986;5.842;2022-08-16T07:45:26;20.73;;;15.85;;
46765;SDS011;32527;51.986;5.842;2022-08-16T07:47:52;19.85;;;13.68;;
46765;SDS011;32527;51.986;5.842;2022-08-16T07:50:19;18.10;;;15.43;;
46765;SDS011;32527;51.986;5.842;2022-08-16T07:52:46;17.08;;;14.73;;
46765;SDS011;32527;51.986;5.842;2022-08-16T07:55:14;18.88;;;14.55;;
46765;SDS011;32527;51.986;5.842;2022-08-16T07:57:41;16.45;;;13.23;;
46765;SDS011;32527;51.986;5.842;2022-08-16T08:00:08;19.27;;;14.88;;
46765;SDS011;32527;51.986;5.842;2022-08-16T08:02:39;14.18;;;12.05;;
46765;SDS011;32527;51.986;5.842;2022-08-16T08:05:06;17.50;;;12.63;;
46765;SDS011;32527;51.986;5.842;2022-08-16T08:07:35;14.25;;;10.23;;
46765;SDS011;32527;51.986;5.842;2022-08-16T08:10:02;13.18;;;10.10;;
46765;SDS011;32527;51.986;5.842;2022-08-16T08:12:29;16.65;;;11.13;;
46765;SDS011;32527;51.986;5.842;2022-08-16T08:14:55;14.20;;;11.02;;
46765;SDS011;32527;51.986;5.842;2022-08-16T08:17:21;15.57;;;10.50;;
46765;SDS011;32527;51.986;5.842;2022-08-16T08:19:48;14.00;;;10.93;;
46765;SDS011;32527;51.986;5.842;2022-08-16T08:22:14;13.70;;;10.40;;
46765;SDS011;32527;51.986;5.842;2022-08-16T08:24:45;11.40;;;9.48;;
46765;SDS011;32527;51.986;5.842;2022-08-16T08:27:11;13.05;;;10.00;;
46765;SDS011;32527;51.986;5.842;2022-08-16T08:29:38;14.50;;;11.48;;
46765;SDS011;32527;51.986;5.842;2022-08-16T08:32:05;12.68;;;10.20;;
46765;SDS011;32527;51.986;5.842;2022-08-16T08:34:32;15.10;;;10.93;;
46765;SDS011;32527;51.986;5.842;2022-08-16T08:36:59;16.00;;;11.65;;
46765;SDS011;32527;51.986;5.842;2022-08-16T08:39:31;14.30;;;12.57;;
46765;SDS011;32527;51.986;5.842;2022-08-16T08:41:58;13.90;;;10.93;;
46765;SDS011;32527;51.986;5.842;2022-08-16T08:44:26;13.63;;;10.32;;
46765;SDS011;32527;51.986;5.842;2022-08-16T08:46:52;16.58;;;12.02;;
46765;SDS011;32527;51.986;5.842;2022-08-16T08:49:22;18.90;;;12.20;;
46765;SDS011;32527;51.986;5.842;2022-08-16T08:51:48;12.65;;;8.50;;
46765;SDS011;32527;51.986;5.842;2022-08-16T08:54:14;12.82;;;10.30;;
46765;SDS011;32527;51.986;5.842;2022-08-16T08:56:42;17.23;;;10.73;;
46765;SDS011;32527;51.986;5.842;2022-08-16T08:59:28;12.55;;;9.95;;
46765;SDS011;32527;51.986;5.842;2022-08-16T09:01:55;15.02;;;11.00;;
46765;SDS011;32527;51.986;5.842;2022-08-16T09:04:21;16.05;;;11.25;;
46765;SDS011;32527;51.986;5.842;2022-08-16T09:06:48;13.27;;;11.82;;
46765;SDS011;32527;51.986;5.842;2022-08-16T09:09:16;13.68;;;11.00;;
46765;SDS011;32527;51.986;5.842;2022-08-16T09:11:43;15.05;;;10.18;;
46765;SDS011;32527;51.986;5.842;2022-08-16T09:14:10;12.48;;;10.60;;
46765;SDS011;32527;51.986;5.842;2022-08-16T09:16:36;16.52;;;11.15;;
46765;SDS011;32527;51.986;5.842;2022-08-16T09:19:02;14.02;;;11.27;;
46765;SDS011;32527;51.986;5.842;2022-08-16T09:21:28;13.88;;;10.05;;
46765;SDS011;32527;51.986;5.842;2022-08-16T09:23:55;14.70;;;11.73;;
46765;SDS011;32527;51.986;5.842;2022-08-16T09:26:22;13.57;;;10.82;;
46765;SDS011;32527;51.986;5.842;2022-08-16T09:28:49;12.65;;;10.07;;
46765;SDS011;32527;51.986;5.842;2022-08-16T09:31:19;14.02;;;10.05;;
46765;SDS011;32527;51.986;5.842;2022-08-16T09:33:44;15.90;;;11.70;;
46765;SDS011;32527;51.986;5.842;2022-08-16T09:36:10;17.17;;;11.88;;
46765;SDS011;32527;51.986;5.842;2022-08-16T09:38:36;14.32;;;10.98;;
46765;SDS011;32527;51.986;5.842;2022-08-16T09:41:04;9.98;;;8.48;;
46765;SDS011;32527;51.986;5.842;2022-08-16T09:43:32;12.63;;;10.15;;
46765;SDS011;32527;51.986;5.842;2022-08-16T09:45:59;10.93;;;8.95;;
46765;SDS011;32527;51.986;5.842;2022-08-16T09:48:26;17.02;;;9.77;;
46765;SDS011;32527;51.986;5.842;2022-08-16T09:50:52;13.80;;;10.35;;
46765;SDS011;32527;51.986;5.842;2022-08-16T09:53:19;12.88;;;10.13;;
46765;SDS011;32527;51.986;5.842;2022-08-16T09:55:49;14.45;;;9.20;;
46765;SDS011;32527;51.986;5.842;2022-08-16T09:58:21;10.30;;;9.07;;
46765;SDS011;32527;51.986;5.842;2022-08-16T10:00:48;15.68;;;9.77;;
46765;SDS011;32527;51.986;5.842;2022-08-16T10:03:15;12.25;;;9.63;;
46765;SDS011;32527;51.986;5.842;2022-08-16T10:05:41;13.80;;;9.55;;
46765;SDS011;32527;51.986;5.842;2022-08-16T10:08:06;15.95;;;12.18;;
46765;SDS011;32527;51.986;5.842;2022-08-16T10:10:32;12.77;;;9.05;;
46765;SDS011;32527;51.986;5.842;2022-08-16T10:12:59;15.13;;;11.20;;
46765;SDS011;32527;51.986;5.842;2022-08-16T10:15:40;11.88;;;9.00;;
46765;SDS011;32527;51.986;5.842;2022-08-16T10:18:07;13.65;;;9.18;;
46765;SDS011;32527;51.986;5.842;2022-08-16T10:20:38;18.45;;;9.10;;
46765;SDS011;32527;51.986;5.842;2022-08-16T10:23:08;12.75;;;8.07;;
46765;SDS011;32527;51.986;5.842;2022-08-16T10:25:37;13.57;;;10.90;;
46765;SDS011;32527;51.986;5.842;2022-08-16T10:28:05;12.48;;;8.60;;
46765;SDS011;32527;51.986;5.842;2022-08-16T10:30:32;14.57;;;9.45;;
46765;SDS011;32527;51.986;5.842;2022-08-16T10:32:57;10.70;;;8.43;;
46765;SDS011;32527;51.986;5.842;2022-08-16T10:35:23;11.70;;;8.43;;
46765;SDS011;32527;51.986;5.842;2022-08-16T10:37:49;12.73;;;9.75;;
46765;SDS011;32527;51.986;5.842;2022-08-16T10:40:16;12.13;;;8.43;;
46765;SDS011;32527;51.986;5.842;2022-08-16T10:42:42;14.77;;;8.13;;
46765;SDS011;32527;51.986;5.842;2022-08-16T10:45:08;10.60;;;8.80;;
46765;SDS011;32527;51.986;5.842;2022-08-16T10:47:34;10.35;;;7.65;;
46765;SDS011;32527;51.986;5.842;2022-08-16T10:50:01;11.52;;;8.27;;
46765;SDS011;32527;51.986;5.842;2022-08-16T10:52:28;10.13;;;7.97;;
46765;SDS011;32527;51.986;5.842;2022-08-16T10:54:55;10.73;;;7.18;;
46765;SDS011;32527;51.986;5.842;2022-08-16T10:57:20;11.23;;;7.20;;
46765;SDS011;32527;51.986;5.842;2022-08-16T10:59:46;12.43;;;7.93;;
46765;SDS011;32527;51.986;5.842;2022-08-16T11:02:12;10.93;;;7.18;;
46765;SDS011;32527;51.986;5.842;2022-08-16T11:04:38;11.73;;;8.07;;
46765;SDS011;32527;51.986;5.842;2022-08-16T11:07:04;11.35;;;7.53;;
46765;SDS011;32527;51.986;5.842;2022-08-16T11:09:30;10.30;;;8.65;;
46765;SDS011;32527;51.986;5.842;2022-08-16T11:11:55;16.23;;;9.98;;
46765;SDS011;32527;51.986;5.842;2022-08-16T11:14:21;10.35;;;7.53;;
46765;SDS011;32527;51.986;5.842;2022-08-16T11:16:48;13.40;;;8.15;;
46765;SDS011;32527;51.986;5.842;2022-08-16T11:19:14;10.13;;;7.28;;
46765;SDS011;32527;51.986;5.842;2022-08-16T11:21:41;9.63;;;7.10;;
46765;SDS011;32527;51.986;5.842;2022-08-16T11:24:07;16.20;;;8.77;;
46765;SDS011;32527;51.986;5.842;2022-08-16T11:26:33;9.80;;;8.35;;
46765;SDS011;32527;51.986;5.842;2022-08-16T11:28:59;13.05;;;7.15;;
46765;SDS011;32527;51.986;5.842;2022-08-16T11:31:24;11.10;;;7.18;;
46765;SDS011;32527;51.986;5.842;2022-08-16T11:33:50;10.93;;;6.97;;
46765;SDS011;32527;51.986;5.842;2022-08-16T11:36:16;13.98;;;7.88;;
46765;SDS011;32527;51.986;5.842;2022-08-16T11:38:43;13.85;;;8.82;;
46765;SDS011;32527;51.986;5.842;2022-08-16T11:41:10;16.42;;;9.25;;
46765;SDS011;32527;51.986;5.842;2022-08-16T11:43:37;8.85;;;7.60;;
46765;SDS011;32527;51.986;5.842;2022-08-16T11:46:07;12.68;;;7.25;;
46765;SDS011;32527;51.986;5.842;2022-08-16T11:48:34;13.85;;;7.45;;
46765;SDS011;32527;51.986;5.842;2022-08-16T11:51:00;14.02;;;8.40;;
46765;SDS011;32527;51.986;5.842;2022-08-16T11:53:27;12.30;;;8.90;;
46765;SDS011;32527;51.986;5.842;2022-08-16T11:55:54;13.43;;;8.20;;
46765;SDS011;32527;51.986;5.842;2022-08-16T11:58:24;11.98;;;7.65;;
46765;SDS011;32527;51.986;5.842;2022-08-16T12:00:52;12.77;;;7.57;;
46765;SDS011;32527;51.986;5.842;2022-08-16T12:03:21;11.82;;;6.75;;
46765;SDS011;32527;51.986;5.842;2022-08-16T12:05:48;9.98;;;7.25;;
46765;SDS011;32527;51.986;5.842;2022-08-16T12:08:14;11.48;;;7.75;;
46765;SDS011;32527;51.986;5.842;2022-08-16T12:10:40;9.95;;;6.53;;
46765;SDS011;32527;51.986;5.842;2022-08-16T12:13:06;12.95;;;8.10;;
46765;SDS011;32527;51.986;5.842;2022-08-16T12:15:33;11.88;;;8.15;;
46765;SDS011;32527;51.986;5.842;2022-08-16T12:18:00;13.20;;;7.18;;
46765;SDS011;32527;51.986;5.842;2022-08-16T12:20:27;15.93;;;11.90;;
46765;SDS011;32527;51.986;5.842;2022-08-16T12:22:55;10.85;;;8.23;;
46765;SDS011;32527;51.986;5.842;2022-08-16T12:25:23;13.23;;;8.27;;
46765;SDS011;32527;51.986;5.842;2022-08-16T12:27:50;13.65;;;8.85;;
46765;SDS011;32527;51.986;5.842;2022-08-16T12:30:21;14.95;;;9.95;;
46765;SDS011;32527;51.986;5.842;2022-08-16T12:32:53;12.43;;;9.07;;
46765;SDS011;32527;51.986;5.842;2022-08-16T12:35:19;11.23;;;8.25;;
46765;SDS011;32527;51.986;5.842;2022-08-16T12:37:46;9.73;;;6.32;;
46765;SDS011;32527;51.986;5.842;2022-08-16T12:40:14;12.30;;;7.82;;
46765;SDS011;32527;51.986;5.842;2022-08-16T12:42:45;11.30;;;7.70;;
46765;SDS011;32527;51.986;5.842;2022-08-16T12:45:14;10.82;;;6.47;;
46765;SDS011;32527;51.986;5.842;2022-08-16T12:47:41;12.63;;;6.90;;
46765;SDS011;32527;51.986;5.842;2022-08-16T12:50:25;11.32;;;7.25;;
46765;SDS011;32527;51.986;5.842;2022-08-16T12:52:51;11.55;;;7.55;;
46765;SDS011;32527;51.986;5.842;2022-08-16T12:55:17;12.52;;;8.45;;
46765;SDS011;32527;51.986;5.842;2022-08-16T12:57:42;10.02;;;7.53;;
46765;SDS011;32527;51.986;5.842;2022-08-16T13:00:10;12.70;;;6.85;;
46765;SDS011;32527;51.986;5.842;2022-08-16T13:02:40;10.10;;;7.38;;
46765;SDS011;32527;51.986;5.842;2022-08-16T13:05:10;15.23;;;7.47;;
46765;SDS011;32527;51.986;5.842;2022-08-16T13:07:37;15.45;;;8.65;;
46765;SDS011;32527;51.986;5.842;2022-08-16T13:10:04;14.15;;;8.35;;
46765;SDS011;32527;51.986;5.842;2022-08-16T13:12:36;12.82;;;7.50;;
46765;SDS011;32527;51.986;5.842;2022-08-16T13:15:04;8.60;;;7.28;;
46765;SDS011;32527;51.986;5.842;2022-08-16T13:17:35;13.55;;;9.35;;
46765;SDS011;32527;51.986;5.842;2022-08-16T13:20:03;18.48;;;10.30;;
46765;SDS011;32527;51.986;5.842;2022-08-16T13:22:31;13.35;;;9.60;;
46765;SDS011;32527;51.986;5.842;2022-08-16T13:24:57;16.55;;;10.30;;
46765;SDS011;32527;51.986;5.842;2022-08-16T13:27:23;15.45;;;8.73;;
46765;SDS011;32527;51.986;5.842;2022-08-16T13:29:49;9.32;;;6.53;;
46765;SDS011;32527;51.986;5.842;2022-08-16T13:32:14;18.65;;;9.75;;
46765;SDS011;32527;51.986;5.842;2022-08-16T13:34:40;13.50;;;9.23;;
46765;SDS011;32527;51.986;5.842;2022-08-16T13:37:06;13.05;;;9.05;;
46765;SDS011;32527;51.986;5.842;2022-08-16T13:39:32;11.40;;;7.60;;
46765;SDS011;32527;51.986;5.842;2022-08-16T13:41:58;10.60;;;7.53;;
46765;SDS011;32527;51.986;5.842;2022-08-16T13:44:27;11.98;;;8.38;;
46765;SDS011;32527;51.986;5.842;2022-08-16T13:46:52;8.73;;;6.75;;
46765;SDS011;32527;51.986;5.842;2022-08-16T13:49:18;9.48;;;7.18;;
46765;SDS011;32527;51.986;5.842;2022-08-16T13:51:44;9.48;;;6.15;;
46765;SDS011;32527;51.986;5.842;2022-08-16T13:54:09;7.95;;;5.57;;
46765;SDS011;32527;51.986;5.842;2022-08-16T13:56:35;7.82;;;6.00;;
46765;SDS011;32527;51.986;5.842;2022-08-16T13:59:02;13.13;;;6.20;;
46765;SDS011;32527;51.986;5.842;2022-08-16T14:01:28;7.95;;;6.10;;
46765;SDS011;32527;51.986;5.842;2022-08-16T14:03:53;11.98;;;6.70;;
46765;SDS011;32527;51.986;5.842;2022-08-16T14:06:19;10.43;;;5.90;;
46765;SDS011;32527;51.986;5.842;2022-08-16T14:08:45;12.38;;;5.55;;
46765;SDS011;32527;51.986;5.842;2022-08-16T14:11:12;9.27;;;5.60;;
46765;SDS011;32527;51.986;5.842;2022-08-16T14:13:39;9.80;;;6.20;;
46765;SDS011;32527;51.986;5.842;2022-08-16T14:16:06;10.57;;;6.30;;
46765;SDS011;32527;51.986;5.842;2022-08-16T14:18:33;9.13;;;6.78;;
46765;SDS011;32527;51.986;5.842;2022-08-16T14:20:58;13.07;;;5.95;;
46765;SDS011;32527;51.986;5.842;2022-08-16T14:23:24;10.30;;;5.70;;
46765;SDS011;32527;51.986;5.842;2022-08-16T14:25:50;9.82;;;7.07;;
46765;SDS011;32527;51.986;5.842;2022-08-16T14:28:16;13.57;;;7.10;;
46765;SDS011;32527;51.986;5.842;2022-08-16T14:30:42;9.93;;;5.28;;
46765;SDS011;32527;51.986;5.842;2022-08-16T14:33:08;9.65;;;5.97;;
46765;SDS011;32527;51.986;5.842;2022-08-16T14:35:34;10.48;;;6.95;;
46765;SDS011;32527;51.986;5.842;2022-08-16T14:38:00;9.00;;;6.00;;
46765;SDS011;32527;51.986;5.842;2022-08-16T14:40:26;9.00;;;5.72;;
46765;SDS011;32527;51.986;5.842;2022-08-16T14:42:53;8.45;;;5.85;;